createdAt,value
2018-03-04T00:00:47.634Z,106.60
2018-03-04T00:01:47.785Z,109.80
2018-03-04T00:02:47.938Z,106.00
2018-03-04T00:03:48.090Z,110.20
2018-03-04T00:04:48.241Z,103.30
2018-03-04T00:05:48.399Z,104.20
2018-03-04T00:06:48.550Z,102.70
2018-03-04T00:07:48.693Z,105.60
2018-03-04T00:08:48.845Z,103.50
2018-03-04T00:09:49.009Z,104.70
2018-03-04T00:10:49.157Z,107.00
2018-03-04T00:11:49.309Z,106.40
2018-03-04T00:12:49.459Z,106.10
2018-03-04T00:13:49.614Z,103.90
2018-03-04T00:14:49.763Z,108.90
2018-03-04T00:15:49.915Z,104.90
2018-03-04T00:16:50.067Z,105.80
2018-03-04T00:17:50.218Z,108.80
2018-03-04T00:18:50.379Z,106.90
2018-03-04T00:19:50.519Z,110.70
2018-03-04T00:20:50.671Z,110.90
2018-03-04T00:21:50.823Z,105.20
2018-03-04T00:22:50.985Z,108.10
2018-03-04T00:23:51.144Z,109.60
2018-03-04T00:24:51.278Z,110.00
2018-03-04T00:25:51.436Z,107.00
2018-03-04T00:26:51.601Z,103.50
2018-03-04T00:27:51.736Z,111.40
2018-03-04T00:28:51.888Z,106.60
2018-03-04T00:29:52.039Z,107.60
2018-03-04T00:30:52.195Z,113.40
2018-03-04T00:31:52.343Z,102.50
2018-03-04T00:32:52.494Z,108.40
2018-03-04T00:33:52.647Z,110.40
2018-03-04T00:34:52.798Z,109.10
2018-03-04T00:35:52.953Z,105.30
2018-03-04T00:36:53.099Z,108.60
2018-03-04T00:37:53.255Z,102.10
2018-03-04T00:38:53.406Z,104.60
2018-03-04T00:39:53.564Z,110.60
2018-03-04T00:40:53.718Z,110.20
2018-03-04T00:41:53.863Z,107.60
2018-03-04T00:42:54.016Z,104.20
2018-03-04T00:43:54.167Z,107.20
2018-03-04T00:44:54.319Z,110.90
2018-03-04T00:45:54.472Z,110.10
2018-03-04T00:46:54.623Z,106.90
2018-03-04T00:47:54.781Z,107.20
2018-03-04T00:48:54.924Z,104.60
2018-03-04T00:49:55.075Z,103.10
2018-03-04T00:50:55.227Z,105.40
2018-03-04T00:51:55.386Z,104.60
2018-03-04T00:52:55.541Z,106.30
2018-03-04T00:53:55.687Z,103.00
2018-03-04T00:54:55.838Z,104.70
2018-03-04T00:55:55.994Z,103.20
2018-03-04T00:56:56.141Z,108.80
2018-03-04T00:57:56.290Z,106.90
2018-03-04T00:58:56.446Z,105.50
2018-03-04T00:59:56.607Z,107.00
2018-03-04T01:00:56.750Z,105.40
2018-03-04T01:01:56.905Z,106.10
2018-03-04T01:02:57.054Z,102.10
2018-03-04T01:03:57.213Z,101.80
2018-03-04T01:04:57.364Z,105.70
2018-03-04T01:05:57.516Z,108.30
2018-03-04T01:06:57.668Z,107.70
2018-03-04T01:07:57.823Z,112.00
2018-03-04T01:08:57.971Z,107.50
2018-03-04T01:09:58.123Z,106.90
2018-03-04T01:10:58.275Z,104.50
2018-03-04T01:11:58.425Z,105.40
2018-03-04T01:12:58.575Z,101.60
2018-03-04T01:13:58.727Z,105.70
2018-03-04T01:14:58.878Z,104.50
2018-03-04T01:15:59.038Z,109.90
2018-03-04T01:16:59.187Z,109.30
2018-03-04T01:17:59.340Z,108.60
2018-03-04T01:18:59.494Z,107.90
2018-03-04T01:19:59.647Z,108.00
2018-03-04T01:20:59.797Z,104.90
2018-03-04T01:21:59.950Z,103.70
2018-03-04T01:23:00.103Z,111.60
2018-03-04T01:24:00.258Z,112.20
2018-03-04T01:25:00.401Z,108.10
2018-03-04T01:26:00.553Z,106.30
2018-03-04T01:27:00.702Z,104.60
2018-03-04T01:28:00.873Z,112.50
2018-03-04T01:29:01.022Z,105.60
2018-03-04T01:30:01.174Z,105.70
2018-03-04T01:31:01.323Z,105.80
2018-03-04T01:32:01.473Z,108.40
2018-03-04T01:33:01.626Z,109.40
2018-03-04T01:34:01.770Z,107.70
2018-03-04T01:35:01.938Z,103.70
2018-03-04T01:36:02.089Z,101.40
2018-03-04T01:37:02.243Z,107.80
2018-03-04T01:38:02.394Z,106.80
2018-03-04T01:39:02.546Z,107.00
2018-03-04T01:40:02.698Z,108.70
2018-03-04T01:41:02.903Z,107.50
2018-03-04T01:42:03.012Z,107.40
2018-03-04T01:43:03.163Z,108.20
2018-03-04T01:44:03.315Z,108.50
2018-03-04T01:45:03.466Z,111.00
2018-03-04T01:46:03.617Z,107.40
2018-03-04T01:47:03.769Z,105.00
2018-03-04T01:48:03.915Z,108.40
2018-03-04T01:49:04.081Z,108.30
2018-03-04T01:50:04.239Z,108.20
2018-03-04T01:51:04.373Z,107.90
2018-03-04T01:52:04.527Z,109.80
2018-03-04T01:53:04.678Z,104.30
2018-03-04T01:54:04.838Z,102.70
2018-03-04T01:55:04.986Z,100.60
2018-03-04T01:56:05.147Z,103.30
2018-03-04T01:57:05.312Z,105.00
2018-03-04T01:58:05.462Z,106.70
2018-03-04T01:59:05.618Z,102.70
2018-03-04T02:00:05.766Z,107.80
2018-03-04T02:01:05.917Z,111.30
2018-03-04T02:02:06.069Z,107.80
2018-03-04T02:03:06.222Z,108.20
2018-03-04T02:04:06.382Z,106.20
2018-03-04T02:05:06.524Z,110.20
2018-03-04T02:06:06.674Z,106.20
2018-03-04T02:07:06.826Z,108.30
2018-03-04T02:08:06.985Z,101.40
2018-03-04T02:09:07.136Z,107.90
2018-03-04T02:10:07.289Z,103.00
2018-03-04T02:11:07.440Z,102.80
2018-03-04T02:12:07.591Z,107.00
2018-03-04T02:13:07.742Z,111.50
2018-03-04T02:14:07.890Z,113.20
2018-03-04T02:15:08.048Z,103.90
2018-03-04T02:16:08.206Z,107.60
2018-03-04T02:17:08.348Z,110.70
2018-03-04T02:18:08.501Z,113.20
2018-03-04T02:19:08.655Z,111.60
2018-03-04T02:20:08.815Z,105.90
2018-03-04T02:21:08.967Z,111.20
2018-03-04T02:22:09.119Z,109.40
2018-03-04T02:23:09.270Z,107.80
2018-03-04T02:24:09.419Z,109.90
2018-03-04T02:25:09.574Z,110.80
2018-03-04T02:26:09.724Z,106.80
2018-03-04T02:27:09.885Z,111.60
2018-03-04T02:28:10.040Z,114.50
2018-03-04T02:29:10.188Z,106.20
2018-03-04T02:30:10.341Z,110.70
2018-03-04T02:31:10.501Z,111.80
2018-03-04T02:32:10.644Z,113.40
2018-03-04T02:33:10.790Z,115.30
2018-03-04T02:34:10.947Z,111.10
2018-03-04T02:35:11.110Z,110.20
2018-03-04T02:36:11.247Z,110.80
2018-03-04T02:37:11.398Z,114.30
2018-03-04T02:38:11.544Z,114.40
2018-03-04T02:39:11.709Z,116.80
2018-03-04T02:40:11.859Z,116.40
2018-03-04T02:41:12.002Z,111.10
2018-03-04T02:42:12.155Z,110.70
2018-03-04T02:43:12.307Z,111.80
2018-03-04T02:44:12.468Z,117.70
2018-03-04T02:45:12.623Z,115.90
2018-03-04T02:46:12.773Z,111.90
2018-03-04T02:47:12.932Z,118.80
2018-03-04T02:48:13.074Z,114.10
2018-03-04T02:49:13.227Z,108.40
2018-03-04T02:50:13.386Z,114.10
2018-03-04T02:51:13.537Z,113.80
2018-03-04T02:52:13.696Z,111.50
2018-03-04T02:53:13.843Z,110.20
2018-03-04T02:54:13.994Z,111.30
2018-03-04T02:55:14.146Z,111.60
2018-03-04T02:56:14.298Z,116.10
2018-03-04T02:57:14.450Z,111.60
2018-03-04T02:58:14.610Z,109.10
2018-03-04T02:59:14.761Z,113.40
2018-03-04T03:00:14.922Z,114.40
2018-03-04T03:01:15.068Z,112.60
2018-03-04T03:02:15.220Z,115.40
2018-03-04T03:03:15.369Z,112.80
2018-03-04T03:04:15.523Z,110.20
2018-03-04T03:05:15.675Z,110.70
2018-03-04T03:06:15.842Z,114.70
2018-03-04T03:07:15.985Z,110.20
2018-03-04T03:08:16.130Z,104.70
2018-03-04T03:09:16.283Z,109.00
2018-03-04T03:10:16.439Z,116.10
2018-03-04T03:11:16.593Z,115.80
2018-03-04T03:12:16.743Z,112.50
2018-03-04T03:13:16.938Z,106.90
2018-03-04T03:14:17.046Z,110.50
2018-03-04T03:15:17.199Z,116.30
2018-03-04T03:16:17.352Z,110.90
2018-03-04T03:17:17.512Z,111.10
2018-03-04T03:18:17.670Z,111.00
2018-03-04T03:19:17.816Z,114.60
2018-03-04T03:20:17.969Z,115.90
2018-03-04T03:21:18.118Z,113.40
2018-03-04T03:22:18.270Z,113.40
2018-03-04T03:23:18.422Z,118.10
2018-03-04T03:24:18.574Z,112.30
2018-03-04T03:25:18.731Z,113.30
2018-03-04T03:26:18.876Z,115.90
2018-03-04T03:27:19.029Z,112.80
2018-03-04T03:28:19.177Z,111.80
2018-03-04T03:29:19.348Z,115.20
2018-03-04T03:30:19.492Z,111.20
2018-03-04T03:31:19.648Z,115.00
2018-03-04T03:32:19.805Z,115.00
2018-03-04T03:33:19.948Z,116.30
2018-03-04T03:34:20.103Z,117.50
2018-03-04T03:35:20.254Z,119.10
2018-03-04T03:36:20.413Z,119.60
2018-03-04T03:37:20.562Z,115.30
2018-03-04T03:38:20.717Z,113.00
2018-03-04T03:39:20.870Z,116.00
2018-03-04T03:40:21.019Z,115.10
2018-03-04T03:41:21.171Z,114.80
2018-03-04T03:42:21.324Z,115.20
2018-03-04T03:43:21.484Z,118.10
2018-03-04T03:44:21.631Z,117.80
2018-03-04T03:45:21.790Z,117.10
2018-03-04T03:46:21.943Z,113.10
2018-03-04T03:47:22.092Z,112.80
2018-03-04T03:48:22.245Z,118.20
2018-03-04T03:49:22.389Z,116.00
2018-03-04T03:50:22.548Z,116.40
2018-03-04T03:51:22.707Z,118.80
2018-03-04T03:52:22.848Z,121.80
2018-03-04T03:53:23.000Z,119.60
2018-03-04T03:54:23.151Z,117.30
2018-03-04T03:55:23.311Z,116.30
2018-03-04T03:56:23.461Z,116.40
2018-03-04T03:57:23.614Z,119.60
2018-03-04T03:58:23.766Z,116.50
2018-03-04T03:59:23.918Z,119.40
2018-03-04T04:00:24.072Z,120.60
2018-03-04T04:01:24.221Z,121.20
2018-03-04T04:02:24.375Z,120.90
2018-03-04T04:03:24.531Z,117.50
2018-03-04T04:04:24.675Z,114.80
2018-03-04T04:05:24.827Z,114.20
2018-03-04T04:06:24.981Z,117.50
2018-03-04T04:07:25.138Z,121.90
2018-03-04T04:08:25.288Z,114.80
2018-03-04T04:09:25.441Z,116.40
2018-03-04T04:10:25.595Z,119.10
2018-03-04T04:11:25.745Z,118.20
2018-03-04T04:12:25.902Z,117.30
2018-03-04T04:13:26.055Z,119.70
2018-03-04T04:14:26.198Z,120.40
2018-03-04T04:15:26.355Z,118.10
2018-03-04T04:16:26.501Z,118.00
2018-03-04T04:17:26.651Z,117.90
2018-03-04T04:18:26.803Z,116.50
2018-03-04T04:19:26.962Z,121.30
2018-03-04T04:20:27.113Z,120.00
2018-03-04T04:21:27.268Z,119.10
2018-03-04T04:22:27.420Z,119.50
2018-03-04T04:23:27.570Z,116.90
2018-03-04T04:24:27.717Z,119.10
2018-03-04T04:25:27.866Z,113.40
2018-03-04T04:26:28.026Z,121.60
2018-03-04T04:27:28.184Z,121.40
2018-03-04T04:28:28.327Z,113.20
2018-03-04T04:29:28.479Z,118.60
2018-03-04T04:30:28.631Z,116.70
2018-03-04T04:31:28.791Z,115.10
2018-03-04T04:32:28.940Z,118.80
2018-03-04T04:33:29.095Z,120.50
2018-03-04T04:34:29.247Z,116.60
2018-03-04T04:35:29.397Z,118.60
2018-03-04T04:36:29.549Z,119.60
2018-03-04T04:37:29.696Z,123.20
2018-03-04T04:38:29.863Z,122.80
2018-03-04T04:39:30.020Z,121.70
2018-03-04T04:40:30.162Z,118.60
2018-03-04T04:41:30.314Z,112.40
2018-03-04T04:42:30.466Z,116.70
2018-03-04T04:43:30.618Z,118.00
2018-03-04T04:44:30.767Z,122.10
2018-03-04T04:45:30.921Z,118.80
2018-03-04T04:46:31.074Z,116.10
2018-03-04T04:47:31.224Z,111.80
2018-03-04T04:48:31.377Z,124.80
2018-03-04T04:49:31.531Z,116.70
2018-03-04T04:50:31.688Z,119.80
2018-03-04T04:51:31.836Z,113.90
2018-03-04T04:52:31.998Z,117.60
2018-03-04T04:53:32.148Z,116.70
2018-03-04T04:54:32.295Z,115.10
2018-03-04T04:55:32.446Z,117.50
2018-03-04T04:56:32.594Z,116.60
2018-03-04T04:57:32.751Z,119.10
2018-03-04T04:58:32.909Z,115.80
2018-03-04T04:59:33.056Z,119.50
2018-03-04T05:00:33.207Z,118.90
2018-03-04T05:01:33.358Z,118.20
2018-03-04T05:02:33.521Z,119.40
2018-03-04T05:03:33.673Z,120.10
2018-03-04T05:04:33.825Z,118.90
2018-03-04T05:05:33.992Z,114.40
2018-03-04T05:06:34.128Z,122.50
2018-03-04T05:07:34.280Z,120.40
2018-03-04T05:08:34.432Z,116.60
2018-03-04T05:09:34.593Z,118.90
2018-03-04T05:10:34.776Z,121.50
2018-03-04T05:11:34.897Z,121.50
2018-03-04T05:12:35.059Z,121.70
2018-03-04T05:13:35.199Z,121.90
2018-03-04T05:14:35.351Z,121.80
2018-03-04T05:15:35.503Z,120.00
2018-03-04T05:16:35.663Z,117.40
2018-03-04T05:17:35.814Z,122.00
2018-03-04T05:18:35.967Z,119.00
2018-03-04T05:19:36.118Z,118.90
2018-03-04T05:20:36.271Z,126.10
2018-03-04T05:21:36.424Z,113.90
2018-03-04T05:22:36.579Z,122.50
2018-03-04T05:23:36.736Z,122.70
2018-03-04T05:24:36.883Z,117.00
2018-03-04T05:25:37.044Z,114.70
2018-03-04T05:26:37.194Z,120.20
2018-03-04T05:27:37.343Z,120.50
2018-03-04T05:28:37.495Z,114.80
2018-03-04T05:29:37.648Z,115.40
2018-03-04T05:30:37.804Z,118.10
2018-03-04T05:31:37.960Z,118.50
2018-03-04T05:32:38.101Z,114.00
2018-03-04T05:33:38.255Z,113.90
2018-03-04T05:34:38.410Z,114.40
2018-03-04T05:35:38.567Z,120.10
2018-03-04T05:36:38.718Z,116.50
2018-03-04T05:37:38.871Z,118.80
2018-03-04T05:38:39.030Z,115.70
2018-03-04T05:39:39.174Z,118.50
2018-03-04T05:40:39.329Z,115.10
2018-03-04T05:41:39.478Z,118.10
2018-03-04T05:42:39.640Z,112.90
2018-03-04T05:43:39.793Z,117.30
2018-03-04T05:44:39.946Z,118.40
2018-03-04T05:45:40.101Z,119.90
2018-03-04T05:46:40.248Z,120.40
2018-03-04T05:47:40.410Z,115.90
2018-03-04T05:48:40.551Z,114.30
2018-03-04T05:49:40.710Z,120.40
2018-03-04T05:50:40.860Z,122.50
2018-03-04T05:51:41.017Z,120.20
2018-03-04T05:52:41.168Z,117.80
2018-03-04T05:53:41.317Z,118.10
2018-03-04T05:54:41.470Z,115.10
2018-03-04T05:55:41.617Z,122.10
2018-03-04T05:56:41.773Z,122.50
2018-03-04T05:57:41.929Z,115.50
2018-03-04T05:58:42.075Z,122.40
2018-03-04T05:59:42.227Z,120.80
2018-03-04T06:00:42.394Z,115.00
2018-03-04T06:01:42.546Z,119.90
2018-03-04T06:02:42.704Z,112.70
2018-03-04T06:03:42.863Z,114.40
2018-03-04T06:04:43.007Z,120.90
2018-03-04T06:05:43.163Z,117.20
2018-03-04T06:06:43.315Z,116.00
2018-03-04T06:07:43.462Z,116.90
2018-03-04T06:08:43.617Z,112.10
2018-03-04T06:09:43.770Z,115.10
2018-03-04T06:10:43.931Z,115.10
2018-03-04T06:11:44.083Z,116.50
2018-03-04T06:12:44.238Z,117.20
2018-03-04T06:13:44.399Z,118.00
2018-03-04T06:14:44.541Z,113.40
2018-03-04T06:15:44.694Z,115.90
2018-03-04T06:16:44.847Z,117.10
2018-03-04T06:17:45.012Z,116.30
2018-03-04T06:18:45.161Z,120.20
2018-03-04T06:19:45.314Z,115.60
2018-03-04T06:20:45.473Z,118.70
2018-03-04T06:21:45.617Z,116.20
2018-03-04T06:22:45.771Z,115.00
2018-03-04T06:23:45.924Z,120.00
2018-03-04T06:24:46.137Z,117.40
2018-03-04T06:25:46.229Z,117.10
2018-03-04T06:26:46.387Z,114.20
2018-03-04T06:27:46.538Z,114.50
2018-03-04T06:28:46.687Z,122.90
2018-03-04T06:29:46.840Z,116.10
2018-03-04T06:30:46.992Z,112.50
2018-03-04T06:31:47.153Z,114.10
2018-03-04T06:32:47.306Z,119.60
2018-03-04T06:33:47.458Z,116.70
2018-03-04T06:34:47.610Z,115.80
2018-03-04T06:35:47.765Z,115.10
2018-03-04T06:36:47.913Z,117.90
2018-03-04T06:37:48.066Z,117.80
2018-03-04T06:38:48.227Z,115.80
2018-03-04T06:39:48.380Z,116.30
2018-03-04T06:40:48.524Z,119.10
2018-03-04T06:41:48.676Z,113.70
2018-03-04T06:42:48.832Z,113.80
2018-03-04T06:43:48.982Z,112.80
2018-03-04T06:44:49.137Z,112.70
2018-03-04T06:45:49.281Z,110.60
2018-03-04T06:46:49.434Z,113.90
2018-03-04T06:47:49.900Z,111.20
2018-03-04T06:48:50.144Z,108.90
2018-03-04T06:49:49.908Z,112.50
2018-03-04T06:50:50.293Z,114.40
2018-03-04T06:51:50.214Z,112.70
2018-03-04T06:52:50.379Z,111.90
2018-03-04T06:53:50.521Z,113.30
2018-03-04T06:54:50.680Z,112.60
2018-03-04T06:55:50.836Z,108.30
2018-03-04T06:56:50.983Z,112.70
2018-03-04T06:57:51.136Z,108.80
2018-03-04T06:58:51.289Z,113.20
2018-03-04T06:59:51.447Z,126.20
2018-03-04T07:00:51.597Z,113.80
2018-03-04T07:01:51.756Z,118.70
2018-03-04T07:02:51.908Z,120.60
2018-03-04T07:03:52.057Z,119.10
2018-03-04T07:04:52.248Z,115.20
2018-03-04T07:05:52.363Z,116.10
2018-03-04T07:06:52.523Z,113.70
2018-03-04T07:07:52.674Z,112.40
2018-03-04T07:08:52.824Z,108.70
2018-03-04T07:09:52.978Z,109.50
2018-03-04T07:10:53.128Z,111.40
2018-03-04T07:11:53.281Z,117.70
2018-03-04T07:12:53.434Z,113.00
2018-03-04T07:13:53.595Z,110.50
2018-03-04T07:14:53.752Z,115.80
2018-03-04T07:15:53.900Z,114.90
2018-03-04T07:16:54.102Z,118.00
2018-03-04T07:17:54.203Z,112.50
2018-03-04T07:18:54.356Z,116.00
2018-03-04T07:19:54.511Z,119.60
2018-03-04T07:20:54.669Z,114.30
2018-03-04T07:21:54.820Z,121.10
2018-03-04T07:22:54.976Z,112.50
2018-03-04T07:23:55.128Z,112.10
2018-03-04T07:24:55.278Z,116.50
2018-03-04T07:25:55.431Z,110.40
2018-03-04T07:26:55.588Z,111.10
2018-03-04T07:27:55.743Z,110.50
2018-03-04T07:28:55.895Z,110.70
2018-03-04T07:29:56.048Z,112.90
2018-03-04T07:30:56.201Z,114.20
2018-03-04T07:31:56.351Z,116.60
2018-03-04T07:32:56.512Z,112.30
2018-03-04T07:33:56.649Z,113.70
2018-03-04T07:34:56.801Z,111.50
2018-03-04T07:35:56.965Z,106.30
2018-03-04T07:36:57.105Z,108.40
2018-03-04T07:37:57.258Z,109.90
2018-03-04T07:38:57.413Z,109.30
2018-03-04T07:39:57.571Z,108.60
2018-03-04T07:40:57.723Z,107.20
2018-03-04T07:41:57.868Z,106.20
2018-03-04T07:42:58.020Z,110.20
2018-03-04T07:43:58.173Z,114.70
2018-03-04T07:44:58.326Z,114.30
2018-03-04T07:45:58.482Z,117.50
2018-03-04T07:46:58.633Z,120.50
2018-03-04T07:47:58.788Z,112.10
2018-03-04T07:48:58.936Z,114.60
2018-03-04T07:49:59.086Z,109.40
2018-03-04T07:50:59.239Z,112.40
2018-03-04T07:51:59.398Z,117.80
2018-03-04T07:52:59.555Z,114.00
2018-03-04T07:53:59.703Z,112.80
2018-03-04T07:54:59.869Z,112.90
2018-03-04T07:56:00.008Z,109.30
2018-03-04T07:57:00.160Z,118.10
2018-03-04T07:58:00.313Z,107.70
2018-03-04T07:59:00.477Z,113.50
2018-03-04T08:00:02.852Z,111.20
2018-03-04T08:01:00.773Z,109.90
2018-03-04T08:02:00.924Z,113.50
2018-03-04T08:03:01.080Z,111.90
2018-03-04T08:04:01.237Z,109.70
2018-03-04T08:05:01.383Z,111.10
2018-03-04T08:06:01.528Z,112.40
2018-03-04T08:07:01.690Z,112.80
2018-03-04T08:08:01.838Z,105.40
2018-03-04T08:09:01.982Z,109.30
2018-03-04T08:10:02.131Z,110.40
2018-03-04T08:11:02.295Z,117.00
2018-03-04T08:12:02.448Z,111.60
2018-03-04T08:13:02.601Z,106.30
2018-03-04T08:14:02.759Z,103.00
2018-03-04T08:15:02.906Z,108.90
2018-03-04T08:16:03.063Z,102.00
2018-03-04T08:17:03.213Z,108.10
2018-03-04T08:18:03.375Z,108.90
2018-03-04T08:19:03.528Z,114.20
2018-03-04T08:20:03.690Z,109.40
2018-03-04T08:21:03.842Z,110.30
2018-03-04T08:22:03.997Z,109.20
2018-03-04T08:23:04.158Z,103.10
2018-03-04T08:24:04.302Z,108.00
2018-03-04T08:25:04.455Z,103.80
2018-03-04T08:26:04.609Z,105.90
2018-03-04T08:27:04.766Z,100.10
2018-03-04T08:28:04.915Z,102.10
2018-03-04T08:29:05.073Z,103.90
2018-03-04T08:30:05.231Z,109.50
2018-03-04T08:31:05.378Z,106.60
2018-03-04T08:32:05.532Z,104.80
2018-03-04T08:33:05.707Z,105.10
2018-03-04T08:34:05.864Z,106.50
2018-03-04T08:35:06.014Z,106.50
2018-03-04T08:36:06.170Z,105.00
2018-03-04T08:37:06.321Z,101.60
2018-03-04T08:38:06.481Z,108.40
2018-03-04T08:39:06.635Z,111.70
2018-03-04T08:40:06.789Z,110.30
2018-03-04T08:41:06.950Z,103.50
2018-03-04T08:42:07.094Z,103.40
2018-03-04T08:43:07.247Z,106.70
2018-03-04T08:44:07.400Z,108.50
2018-03-04T08:45:07.556Z,109.80
2018-03-04T08:46:07.711Z,109.80
2018-03-04T08:47:07.865Z,113.10
2018-03-04T08:48:08.022Z,110.40
2018-03-04T08:49:08.168Z,105.10
2018-03-04T08:50:08.322Z,107.00
2018-03-04T08:51:08.476Z,109.50
2018-03-04T08:52:08.631Z,107.00
2018-03-04T08:53:08.780Z,109.30
2018-03-04T08:54:08.938Z,108.30
2018-03-04T08:55:09.096Z,110.40
2018-03-04T08:56:09.243Z,110.10
2018-03-04T08:57:09.398Z,110.40
2018-03-04T08:58:09.551Z,111.00
2018-03-04T08:59:09.704Z,109.20
2018-03-04T09:00:09.867Z,105.10
2018-03-04T09:01:09.997Z,106.50
2018-03-04T09:02:10.154Z,105.60
2018-03-04T09:03:10.308Z,105.30
2018-03-04T09:04:10.462Z,109.60
2018-03-04T09:05:10.610Z,117.80
2018-03-04T09:06:10.776Z,118.00
2018-03-04T09:07:10.929Z,113.10
2018-03-04T09:08:11.085Z,111.50
2018-03-04T09:09:11.244Z,110.70
2018-03-04T09:10:11.391Z,111.60
2018-03-04T09:11:11.545Z,106.30
2018-03-04T09:12:11.699Z,106.50
2018-03-04T09:13:11.854Z,105.30
2018-03-04T09:14:12.000Z,109.90
2018-03-04T09:15:12.163Z,110.60
2018-03-04T09:16:12.318Z,110.40
2018-03-04T09:17:12.466Z,110.10
2018-03-04T09:18:12.620Z,111.70
2018-03-04T09:19:12.775Z,111.80
2018-03-04T09:20:12.929Z,105.20
2018-03-04T09:21:13.076Z,112.00
2018-03-04T09:22:13.246Z,108.80
2018-03-04T09:23:13.400Z,109.20
2018-03-04T09:24:13.555Z,111.40
2018-03-04T09:25:13.714Z,110.10
2018-03-04T09:26:13.886Z,106.20
2018-03-04T09:27:14.015Z,102.20
2018-03-04T09:28:14.169Z,110.20
2018-03-04T09:29:14.326Z,108.10
2018-03-04T09:30:14.481Z,107.20
2018-03-04T09:31:14.645Z,107.00
2018-03-04T09:32:14.799Z,109.50
2018-03-04T09:33:14.965Z,107.60
2018-03-04T09:34:15.119Z,107.00
2018-03-04T09:35:15.273Z,105.30
2018-03-04T09:36:15.430Z,108.20
2018-03-04T09:37:15.576Z,109.10
2018-03-04T09:38:15.730Z,106.60
2018-03-04T09:39:15.887Z,105.00
2018-03-04T09:40:16.042Z,106.00
2018-03-04T09:41:16.191Z,111.70
2018-03-04T09:42:16.363Z,107.60
2018-03-04T09:43:16.519Z,110.20
2018-03-04T09:44:16.700Z,112.90
2018-03-04T09:45:16.836Z,112.70
2018-03-04T09:46:17.000Z,111.30
2018-03-04T09:47:17.156Z,102.90
2018-03-04T09:48:17.311Z,107.70
2018-03-04T09:49:17.470Z,105.80
2018-03-04T09:50:17.617Z,110.20
2018-03-04T09:51:17.774Z,109.60
2018-03-04T09:52:17.928Z,103.50
2018-03-04T09:53:18.085Z,102.40
2018-03-04T09:54:18.238Z,105.10
2018-03-04T09:55:18.398Z,104.90
2018-03-04T09:56:18.553Z,102.90
2018-03-04T09:57:18.723Z,109.20
2018-03-04T09:58:18.873Z,98.80
2018-03-04T09:59:19.028Z,104.80
2018-03-04T10:00:19.199Z,103.20
2018-03-04T10:01:19.340Z,103.00
2018-03-04T10:02:19.497Z,98.50
2018-03-04T10:03:19.657Z,106.20
2018-03-04T10:04:19.815Z,102.30
2018-03-04T10:05:19.968Z,107.30
2018-03-04T10:06:20.123Z,103.10
2018-03-04T10:07:20.280Z,100.70
2018-03-04T10:08:20.437Z,104.30
2018-03-04T10:09:20.593Z,99.40
2018-03-04T10:10:20.756Z,103.00
2018-03-04T10:11:20.912Z,101.40
2018-03-04T10:12:21.080Z,104.20
2018-03-04T10:13:21.234Z,104.00
2018-03-04T10:14:21.398Z,107.50
2018-03-04T10:15:21.552Z,107.60
2018-03-04T10:16:21.719Z,95.00
2018-03-04T10:17:21.876Z,101.50
2018-03-04T10:18:22.041Z,101.90
2018-03-04T10:19:22.199Z,103.80
2018-03-04T10:20:22.377Z,101.20
2018-03-04T10:21:22.517Z,99.00
2018-03-04T10:22:22.685Z,96.80
2018-03-04T10:23:22.842Z,101.50
2018-03-04T10:24:23.007Z,95.80
2018-03-04T10:25:23.155Z,97.70
2018-03-04T10:26:23.328Z,99.40
2018-03-04T10:27:23.484Z,95.80
2018-03-04T10:28:23.654Z,97.50
2018-03-04T10:29:23.808Z,100.70
2018-03-04T10:30:23.970Z,102.20
2018-03-04T10:31:24.121Z,97.90
2018-03-04T10:32:24.291Z,96.70
2018-03-04T10:33:24.448Z,100.00
2018-03-04T10:34:24.612Z,97.20
2018-03-04T10:35:24.765Z,98.30
2018-03-04T10:36:24.934Z,96.70
2018-03-04T10:37:25.087Z,101.70
2018-03-04T10:38:25.257Z,101.40
2018-03-04T10:39:25.410Z,109.10
2018-03-04T10:40:25.577Z,104.10
2018-03-04T10:41:25.735Z,105.80
2018-03-04T10:42:25.899Z,100.80
2018-03-04T10:43:26.050Z,97.50
2018-03-04T10:44:26.220Z,104.50
2018-03-04T10:45:26.377Z,99.40
2018-03-04T10:46:26.543Z,94.60
2018-03-04T10:47:26.699Z,99.10
2018-03-04T10:48:26.863Z,97.20
2018-03-04T10:49:27.021Z,100.50
2018-03-04T10:50:27.169Z,100.80
2018-03-04T10:51:27.330Z,106.50
2018-03-04T10:52:27.490Z,100.50
2018-03-04T10:53:27.639Z,101.60
2018-03-04T10:54:27.796Z,100.00
2018-03-04T10:55:27.953Z,102.60
2018-03-04T10:56:28.116Z,100.10
2018-03-04T10:57:28.267Z,99.80
2018-03-04T10:58:28.424Z,100.80
2018-03-04T10:59:28.582Z,99.10
2018-03-04T11:00:28.733Z,97.60
2018-03-04T11:01:28.906Z,96.30
2018-03-04T11:02:29.066Z,99.60
2018-03-04T11:03:29.227Z,99.00
2018-03-04T11:04:29.391Z,97.30
2018-03-04T11:05:29.531Z,92.80
2018-03-04T11:06:29.690Z,96.00
2018-03-04T11:07:29.843Z,98.10
2018-03-04T11:08:29.999Z,95.70
2018-03-04T11:09:30.157Z,96.60
2018-03-04T11:10:30.314Z,95.90
2018-03-04T11:11:30.504Z,93.00
2018-03-04T11:12:30.628Z,95.90
2018-03-04T11:13:30.786Z,93.60
2018-03-04T11:14:30.945Z,93.80
2018-03-04T11:15:31.098Z,93.50
2018-03-04T11:16:31.262Z,95.30
2018-03-04T11:17:31.416Z,98.10
2018-03-04T11:18:31.587Z,99.40
2018-03-04T11:19:31.744Z,99.90
2018-03-04T11:20:31.957Z,105.30
2018-03-04T11:21:32.058Z,99.50
2018-03-04T11:22:32.234Z,101.20
2018-03-04T11:23:32.390Z,100.70
2018-03-04T11:24:32.548Z,97.30
2018-03-04T11:25:32.706Z,99.80
2018-03-04T11:26:32.876Z,96.40
2018-03-04T11:27:33.026Z,92.60
2018-03-04T11:28:33.237Z,95.50
2018-03-04T11:29:33.350Z,93.60
2018-03-04T11:30:33.513Z,95.50
2018-03-04T11:31:33.671Z,97.00
2018-03-04T11:32:33.833Z,97.00
2018-03-04T11:33:33.987Z,93.50
2018-03-04T11:34:34.165Z,95.70
2018-03-04T11:35:34.320Z,98.20
2018-03-04T11:36:34.481Z,101.00
2018-03-04T11:37:34.639Z,100.60
2018-03-04T11:38:34.802Z,98.00
2018-03-04T11:39:34.963Z,96.10
2018-03-04T11:40:35.119Z,92.50
2018-03-04T11:41:35.277Z,91.80
2018-03-04T11:42:35.442Z,95.50
2018-03-04T11:43:35.601Z,93.40
2018-03-04T11:44:35.768Z,95.50
2018-03-04T11:45:35.923Z,94.50
2018-03-04T11:46:36.093Z,93.20
2018-03-04T11:47:36.249Z,91.40
2018-03-04T11:48:36.407Z,90.30
2018-03-04T11:49:36.565Z,93.60
2018-03-04T11:50:36.727Z,90.40
2018-03-04T11:51:36.886Z,88.90
2018-03-04T11:52:37.052Z,92.80
2018-03-04T11:53:37.208Z,91.70
2018-03-04T11:54:37.375Z,92.80
2018-03-04T11:55:37.530Z,90.40
2018-03-04T11:56:37.691Z,93.20
2018-03-04T11:57:37.849Z,86.70
2018-03-04T11:58:38.016Z,93.10
2018-03-04T11:59:38.175Z,94.70
2018-03-04T12:00:38.333Z,90.20
2018-03-04T12:01:38.493Z,87.00
2018-03-04T12:02:38.656Z,93.20
2018-03-04T12:03:38.814Z,92.80
2018-03-04T12:04:38.981Z,87.70
2018-03-04T12:05:39.139Z,89.30
2018-03-04T12:06:39.298Z,90.80
2018-03-04T12:07:39.456Z,88.60
2018-03-04T12:08:39.619Z,87.10
2018-03-04T12:09:39.795Z,85.90
2018-03-04T12:10:39.970Z,87.70
2018-03-04T12:11:40.107Z,91.70
2018-03-04T12:12:40.268Z,88.80
2018-03-04T12:13:40.427Z,85.00
2018-03-04T12:14:40.640Z,87.30
2018-03-04T12:15:40.747Z,89.40
2018-03-04T12:16:40.906Z,90.10
2018-03-04T12:17:41.065Z,85.00
2018-03-04T12:18:41.228Z,87.60
2018-03-04T12:19:41.387Z,87.00
2018-03-04T12:20:41.549Z,88.80
2018-03-04T12:21:41.702Z,86.90
2018-03-04T12:22:41.871Z,82.30
2018-03-04T12:23:42.030Z,81.00
2018-03-04T12:24:42.191Z,85.90
2018-03-04T12:25:42.351Z,84.90
2018-03-04T12:26:42.513Z,83.50
2018-03-04T12:27:42.672Z,84.70
2018-03-04T12:28:42.835Z,82.80
2018-03-04T12:29:42.988Z,83.00
2018-03-04T12:30:43.156Z,87.90
2018-03-04T12:31:43.320Z,81.40
2018-03-04T12:32:43.477Z,80.70
2018-03-04T12:33:43.640Z,82.30
2018-03-04T12:34:43.798Z,79.30